Angico, Brazil
Current Conditions -  °F | °C
As of 9:45 AM on Friday 24 Oct 2014 (Local Time) from SBIZ Reporting Station
Overcast Overcast  
Wind Chill: 81°   Ceiling: 1500
Heat Index: 85°   Visibility: 6mi
Dew Point: 72°   Wind: 3mph
Humidity: 74%   Direction: 110°ESE
Pressure: 29.91"   Gusts: NA
Location:  6.39°S, 47.86°W
Report Text: SBIZ 241245Z 11003KT 9999 FEW008 OVC015 27/22 Q1013
Loading
Personal Weather Stations






























Interactive Weather Map
Tropical Storm Tracking
New forecast layout! Learn more

10-Day Weather Forecast

Advertisements
Track Severe Weather on mobile